Terminal Aerodrome Forecast
Issued by NWS Melbourne, FL

Home | Current Version | Previous Version | Text Only | Print | Product List | Glossary On
Versions: 1 2 3 4 5 6 7 8 9 10 11 12 13 14 15 16 17 18 19 20 21 22 23 24 25
000
FTUS42 KMLB 211500 AAA
TAFMCO
TAF AMD
KMCO 211500Z 2115/2212 24004KT P6SM SCT020 BKN180 OVC250
     FM211700 20005KT P6SM SCT030 BKN150
     FM220000 07005KT P6SM SCT050 BKN150
     FM220600 02003KT P6SM FEW040 BKN120=

USA.gov is the U.S. government's official web portal to all federal, state and local government web resources and services.